Time;durP1;ratioP1;P1;durP2;ratioP2;P2;SDS_P1;SDS_P2;PMS_P1;PMS_P2;Temp;Humidity;BMP_temperature;BMP_pressure;BME280_temperature;BME280_humidity;BME280_pressure;Samples;Min_cycle;Max_cycle;Signal;HPM_P1;HPM_P2
2023/10/28 00:01:37;;;;;;;1.57;1.53;;;;;;;16.48;100.00;98313.03;5091024;28;20290;-66
2023/10/28 00:04:03;;;;;;;2.00;2.00;;;;;;;16.47;100.00;98309.59;5091214;28;20226;-65
2023/10/28 00:06:30;;;;;;;1.10;1.10;;;;;;;16.44;100.00;98306.41;5091209;28;20191;-65
2023/10/28 00:08:58;;;;;;;3.60;1.93;;;;;;;16.40;100.00;98310.97;5091065;28;20642;-65
2023/10/28 00:11:26;;;;;;;1.10;1.10;;;;;;;16.46;100.00;98302.78;5090863;28;20202;-65
2023/10/28 00:13:53;;;;;;;1.10;1.00;;;;;;;16.52;100.00;98317.84;5090896;28;20201;-65
2023/10/28 00:16:20;;;;;;;1.37;1.00;;;;;;;16.57;100.00;98326.16;5091197;28;20195;-65
2023/10/28 00:18:46;;;;;;;0.70;0.70;;;;;;;16.64;100.00;98321.38;5090673;28;20211;-65
2023/10/28 00:21:15;;;;;;;0.90;0.90;;;;;;;16.67;100.00;98321.94;5090708;28;20686;-65
2023/10/28 00:23:42;;;;;;;4.33;1.30;;;;;;;16.60;100.00;98309.59;5090680;28;20223;-65
2023/10/28 00:26:10;;;;;;;1.10;1.10;;;;;;;16.70;100.00;98328.69;5090778;28;20747;-65
2023/10/28 00:28:36;;;;;;;1.00;1.00;;;;;;;16.56;100.00;98319.31;5090642;28;20198;-65
2023/10/28 00:31:04;;;;;;;1.03;1.03;;;;;;;16.68;100.00;98333.97;5091567;28;20666;-65
2023/10/28 00:33:31;;;;;;;1.33;1.33;;;;;;;16.68;100.00;98333.13;5094786;28;21562;-65
2023/10/28 00:35:58;;;;;;;1.37;1.37;;;;;;;16.66;100.00;98335.84;5094685;28;20256;-65
2023/10/28 00:38:25;;;;;;;0.93;0.93;;;;;;;16.67;100.00;98347.84;5094861;28;20705;-65
2023/10/28 00:40:52;;;;;;;0.93;0.93;;;;;;;16.70;100.00;98345.03;5094502;28;20215;-65
2023/10/28 00:43:24;;;;;;;0.87;0.87;;;;;;;16.70;100.00;98350.19;5092124;28;20212;-65
2023/10/28 00:45:51;;;;;;;1.47;1.37;;;;;;;16.70;100.00;98354.56;5094575;28;20261;-65
2023/10/28 00:48:19;;;;;;;1.20;1.10;;;;;;;16.70;100.00;98357.97;5094338;28;20249;-65
2023/10/28 00:50:46;;;;;;;1.57;1.50;;;;;;;16.65;100.00;98344.53;5094052;28;20219;-65
2023/10/28 00:53:13;;;;;;;1.47;1.37;;;;;;;16.64;100.00;98357.59;5094288;28;20203;-65
2023/10/28 00:55:40;;;;;;;2.80;1.30;;;;;;;16.61;100.00;98342.25;5094011;28;20196;-65
2023/10/28 00:58:09;;;;;;;1.70;1.43;;;;;;;16.59;100.00;98344.97;5094494;28;20252;-65
2023/10/28 01:00:38;;;;;;;1.00;1.00;;;;;;;16.54;100.00;98347.00;5095607;28;20739;-65
2023/10/28 01:03:04;;;;;;;2.47;1.47;;;;;;;16.47;100.00;98345.00;5094028;28;20198;-65
2023/10/28 01:05:33;;;;;;;1.47;1.47;;;;;;;16.42;100.00;98345.31;5094122;28;20666;-65
2023/10/28 01:08:00;;;;;;;3.00;1.60;;;;;;;16.35;100.00;98331.16;5094176;28;20199;-65
2023/10/28 01:10:28;;;;;;;1.10;1.10;;;;;;;16.27;100.00;98323.94;5094075;28;20576;-65
2023/10/28 01:12:55;;;;;;;2.07;1.60;;;;;;;16.22;100.00;98330.34;5093886;28;20203;-66
2023/10/28 01:15:23;;;;;;;1.67;1.57;;;;;;;16.13;100.00;98320.66;5093035;28;20215;-65
2023/10/28 01:17:51;;;;;;;1.60;1.50;;;;;;;16.13;100.00;98331.00;5092676;28;20231;-66
2023/10/28 01:20:18;;;;;;;1.30;1.30;;;;;;;16.07;100.00;98334.84;5093646;28;20212;-65
2023/10/28 01:22:46;;;;;;;2.77;1.47;;;;;;;16.12;100.00;98353.44;5093459;28;20195;-65
2023/10/28 01:25:13;;;;;;;1.10;1.10;;;;;;;16.09;100.00;98360.59;5093906;28;20257;-65
2023/10/28 01:27:40;;;;;;;3.97;1.43;;;;;;;16.05;100.00;98374.66;5093792;28;20203;-66
2023/10/28 01:30:13;;;;;;;1.20;1.20;;;;;;;16.12;100.00;98366.38;5093856;28;20200;-65
2023/10/28 01:32:40;;;;;;;1.20;1.20;;;;;;;16.17;100.00;98358.31;5093541;28;20245;-65
2023/10/28 01:35:09;;;;;;;1.43;1.33;;;;;;;16.23;100.00;98357.88;5093597;28;20203;-65
2023/10/28 01:37:37;;;;;;;1.70;1.57;;;;;;;16.25;100.00;98372.34;5093784;28;20199;-65
2023/10/28 01:40:12;;;;;;;1.77;1.67;;;;;;;16.25;100.00;98387.06;5093387;28;20214;-65
2023/10/28 01:42:39;;;;;;;1.30;1.30;;;;;;;16.25;100.00;98397.41;5092072;28;20659;-65
2023/10/28 01:45:07;;;;;;;1.40;1.40;;;;;;;16.14;100.00;98384.38;5093481;28;20200;-65
2023/10/28 01:47:34;;;;;;;1.27;1.27;;;;;;;16.27;100.00;98395.53;5093645;28;20283;-65
2023/10/28 01:50:00;;;;;;;1.50;1.50;;;;;;;16.26;100.00;98388.69;5093457;28;20278;-65
2023/10/28 01:52:28;;;;;;;1.67;1.57;;;;;;;16.23;100.00;98388.91;5093186;28;20219;-65
2023/10/28 01:54:55;;;;;;;2.10;1.03;;;;;;;16.19;100.00;98382.28;5092928;28;20544;-65
2023/10/28 01:57:24;;;;;;;8.17;1.60;;;;;;;16.15;100.00;98381.69;5092892;28;20574;-66
2023/10/28 01:59:52;;;;;;;1.87;1.77;;;;;;;16.01;100.00;98394.72;5093041;28;20759;-65
2023/10/28 02:02:19;;;;;;;1.20;1.10;;;;;;;15.89;100.00;98399.91;5093024;28;20234;-65
2023/10/28 02:04:46;;;;;;;1.80;1.70;;;;;;;15.95;100.00;98389.16;5092815;28;20211;-65
2023/10/28 02:07:12;;;;;;;1.30;1.20;;;;;;;15.94;100.00;98397.81;5092668;28;20227;-65
2023/10/28 02:09:39;;;;;;;1.17;1.17;;;;;;;15.86;100.00;98385.44;5092867;28;20196;-65
2023/10/28 02:12:06;;;;;;;1.90;1.80;;;;;;;15.94;100.00;98387.47;5092744;28;20199;-65
2023/10/28 02:14:35;;;;;;;2.20;2.10;;;;;;;15.92;100.00;98390.19;5092442;28;20202;-65
2023/10/28 02:17:02;;;;;;;1.90;1.03;;;;;;;15.93;100.00;98403.94;5089391;28;20191;-65
2023/10/28 02:19:29;;;;;;;0.87;0.87;;;;;;;15.94;100.00;98408.16;5092975;28;20200;-65
2023/10/28 02:21:57;;;;;;;1.23;1.23;;;;;;;15.96;100.00;98393.41;5092983;28;20219;-65
2023/10/28 02:24:23;;;;;;;2.57;1.60;;;;;;;15.96;100.00;98393.41;5092765;28;20234;-65
2023/10/28 02:26:50;;;;;;;1.53;1.43;;;;;;;15.97;100.00;98382.09;5092807;28;20670;-65
2023/10/28 02:29:17;;;;;;;1.67;1.67;;;;;;;15.98;100.00;98386.34;5092604;28;20207;-65
2023/10/28 02:31:45;;;;;;;1.07;1.07;;;;;;;15.98;100.00;98378.59;5092370;28;20195;-65
2023/10/28 02:34:12;;;;;;;1.20;1.20;;;;;;;15.91;100.00;98378.19;5092241;28;20203;-65
2023/10/28 02:36:39;;;;;;;2.73;1.37;;;;;;;15.94;100.00;98379.72;5092593;28;20245;-65
2023/10/28 02:39:06;;;;;;;1.03;1.03;;;;;;;15.95;100.00;98391.72;5092542;28;20624;-65
2023/10/28 02:41:33;;;;;;;1.10;1.10;;;;;;;15.96;100.00;98390.81;5092366;28;20302;-65
2023/10/28 02:44:02;;;;;;;1.17;1.17;;;;;;;15.88;100.00;98374.97;5091935;28;20739;-65
2023/10/28 02:46:28;;;;;;;1.33;1.33;;;;;;;15.83;100.00;98384.81;5092122;28;20198;-65
2023/10/28 02:48:56;;;;;;;1.40;1.30;;;;;;;15.89;100.00;98400.75;5092484;28;20740;-65
2023/10/28 02:51:23;;;;;;;2.00;1.60;;;;;;;15.88;100.00;98411.16;5091949;28;20269;-65
2023/10/28 02:53:50;;;;;;;1.57;1.40;;;;;;;15.89;100.00;98420.59;5092135;28;20662;-65
2023/10/28 02:56:17;;;;;;;1.40;1.30;;;;;;;15.87;100.00;98422.41;5092042;28;20199;-66
2023/10/28 02:58:44;;;;;;;1.33;1.23;;;;;;;15.84;100.00;98420.88;5091887;28;20195;-65
2023/10/28 03:01:12;;;;;;;2.23;2.13;;;;;;;15.79;100.00;98416.97;5094643;28;20591;-66
2023/10/28 03:03:41;;;;;;;1.37;1.37;;;;;;;15.76;100.00;98415.41;5091846;28;20253;-65
2023/10/28 03:06:10;;;;;;;2.13;1.93;;;;;;;15.71;100.00;98422.63;5091858;28;20195;-65
2023/10/28 03:08:37;;;;;;;1.60;1.60;;;;;;;15.64;100.00;98429.13;5091849;28;20567;-65
2023/10/28 03:11:04;;;;;;;4.50;2.03;;;;;;;15.57;100.00;98436.44;5091793;28;20263;-65
2023/10/28 03:13:30;;;;;;;1.40;1.40;;;;;;;15.51;100.00;98421.34;5091617;28;20195;-65
2023/10/28 03:15:57;;;;;;;5.20;1.17;;;;;;;15.53;100.00;98419.50;5091708;28;20195;-65
2023/10/28 03:18:24;;;;;;;1.20;1.20;;;;;;;15.48;100.00;98416.38;5091837;28;20624;-65
2023/10/28 03:20:51;;;;;;;3.87;1.03;;;;;;;15.42;100.00;98418.50;5091274;28;20262;-66
2023/10/28 03:23:19;;;;;;;1.10;1.07;;;;;;;15.38;100.00;98425.63;5091577;28;20199;-65
2023/10/28 03:25:46;;;;;;;1.70;1.60;;;;;;;15.19;100.00;98428.56;5091584;28;20199;-65
2023/10/28 03:28:12;;;;;;;1.37;1.30;;;;;;;15.08;100.00;98423.28;5091300;28;20248;-66
2023/10/28 03:30:39;;;;;;;1.03;1.03;;;;;;;15.10;100.00;98420.59;5091483;28;20195;-65
2023/10/28 03:33:06;;;;;;;1.53;1.43;;;;;;;15.13;100.00;98420.41;5091499;28;20203;-65
2023/10/28 03:35:33;;;;;;;1.23;1.23;;;;;;;15.12;100.00;98436.84;5091519;28;20203;-65
2023/10/28 03:38:00;;;;;;;1.83;1.73;;;;;;;14.91;100.00;98440.75;5091345;28;20203;-66
2023/10/28 03:40:28;;;;;;;2.07;1.27;;;;;;;14.69;100.00;98436.13;5091423;28;20626;-65
2023/10/28 03:42:55;;;;;;;1.03;1.03;;;;;;;14.71;100.00;98429.94;5091084;28;20203;-65
2023/10/28 03:45:22;;;;;;;1.03;1.03;;;;;;;14.69;100.00;98433.53;5091128;28;20191;-65
2023/10/28 03:47:48;;;;;;;2.57;1.67;;;;;;;14.66;100.00;98447.47;5090977;28;20252;-65
2023/10/28 03:50:15;;;;;;;1.20;1.20;;;;;;;14.73;100.00;98443.56;5091119;28;20195;-65
2023/10/28 03:52:42;;;;;;;3.57;1.57;;;;;;;14.70;100.00;98438.59;5090885;28;20298;-65
2023/10/28 03:55:09;;;;;;;6.17;1.73;;;;;;;14.79;100.00;98436.38;5091052;28;20201;-65
2023/10/28 03:57:37;;;;;;;1.53;1.43;;;;;;;14.85;100.00;98441.16;5091347;28;20199;-65
2023/10/28 04:00:06;;;;;;;1.37;1.37;;;;;;;14.88;100.00;98440.94;5091118;28;20336;-65
2023/10/28 04:02:33;;;;;;;1.50;1.40;;;;;;;14.93;100.00;98450.06;5091058;28;20198;-65
2023/10/28 04:05:00;;;;;;;1.40;1.40;;;;;;;14.94;100.00;98456.03;5090965;28;20662;-65
2023/10/28 04:07:26;;;;;;;1.13;1.13;;;;;;;14.80;100.00;98458.69;5090611;28;20266;-65
2023/10/28 04:09:53;;;;;;;1.50;1.50;;;;;;;14.76;100.00;98460.63;5090946;28;20199;-65
2023/10/28 04:12:20;;;;;;;1.57;1.47;;;;;;;14.78;100.00;98448.44;5091073;28;20632;-65
2023/10/28 04:14:48;;;;;;;1.50;1.50;;;;;;;14.81;100.00;98452.56;5090513;28;20260;-65
2023/10/28 04:17:14;;;;;;;1.20;1.20;;;;;;;14.83;100.00;98466.22;5090963;28;20200;-67
2023/10/28 04:19:41;;;;;;;3.13;1.50;;;;;;;14.72;100.00;98461.72;5090619;28;20195;-65
2023/10/28 04:22:08;;;;;;;2.13;1.90;;;;;;;14.69;100.00;98473.06;5090690;28;20222;-65
2023/10/28 04:24:35;;;;;;;1.40;1.40;;;;;;;14.60;100.00;98465.06;5089855;28;20234;-65
2023/10/28 04:27:01;;;;;;;1.90;1.80;;;;;;;14.48;100.00;98464.03;5091028;28;20670;-65
2023/10/28 04:29:29;;;;;;;2.00;1.90;;;;;;;14.44;100.00;98478.03;5090807;28;20248;-65
2023/10/28 04:31:57;;;;;;;6.20;1.87;;;;;;;14.38;100.00;98470.66;5090578;28;20197;-65
2023/10/28 04:34:24;;;;;;;2.00;1.90;;;;;;;14.41;100.00;98473.06;5090606;28;20199;-65
2023/10/28 04:36:51;;;;;;;5.00;2.10;;;;;;;14.43;100.00;98471.25;5090958;28;20284;-66
2023/10/28 04:39:18;;;;;;;2.47;2.37;;;;;;;14.36;100.00;98475.09;5090102;28;20200;-65
2023/10/28 04:41:45;;;;;;;2.57;2.47;;;;;;;14.31;100.00;98469.38;5090330;28;20211;-65
2023/10/28 04:44:13;;;;;;;3.27;2.90;;;;;;;14.27;100.00;98470.47;5090612;28;20251;-65
2023/10/28 04:46:41;;;;;;;8.13;2.07;;;;;;;14.32;100.00;98473.59;5090614;28;20199;-65
2023/10/28 04:49:11;;;;;;;2.73;2.53;;;;;;;14.35;100.00;98485.50;5090470;28;20294;-65
2023/10/28 04:51:38;;;;;;;3.03;2.83;;;;;;;14.40;100.00;98486.91;5090529;28;20269;-65
2023/10/28 04:54:06;;;;;;;3.33;3.03;;;;;;;14.46;100.00;98491.69;5087889;28;20202;-65
2023/10/28 04:56:33;;;;;;;2.77;2.57;;;;;;;14.40;100.00;98494.63;5090467;28;20195;-67
2023/10/28 04:58:59;;;;;;;2.50;2.33;;;;;;;14.33;100.00;98503.66;5090553;28;20209;-65
2023/10/28 05:01:26;;;;;;;1.80;1.70;;;;;;;14.36;100.00;98511.19;5090265;28;20217;-65
2023/10/28 05:03:53;;;;;;;1.83;1.73;;;;;;;14.39;100.00;98511.00;5090485;28;20644;-65
2023/10/28 05:06:21;;;;;;;2.33;2.13;;;;;;;14.44;100.00;98510.75;5090678;28;20196;-65
2023/10/28 05:08:49;;;;;;;1.30;1.20;;;;;;;14.47;100.00;98519.13;5090180;28;20196;-65
2023/10/28 05:11:16;;;;;;;1.10;1.10;;;;;;;14.48;100.00;98525.94;5090369;28;20198;-65
2023/10/28 05:13:43;;;;;;;2.30;2.20;;;;;;;14.52;100.00;98540.31;5090424;28;20191;-65
2023/10/28 05:16:11;;;;;;;1.40;1.30;;;;;;;14.57;100.00;98535.69;5090226;28;20648;-65
2023/10/28 05:18:37;;;;;;;2.77;1.53;;;;;;;14.60;100.00;98543.25;5092175;28;20567;-65
2023/10/28 05:21:05;;;;;;;1.97;1.87;;;;;;;14.63;100.00;98550.81;5093889;28;20211;-65
2023/10/28 05:23:33;;;;;;;1.53;1.53;;;;;;;14.67;100.00;98556.59;5093741;28;20195;-65
2023/10/28 05:26:00;;;;;;;1.93;1.83;;;;;;;14.73;100.00;98550.25;5094068;28;20202;-65
2023/10/28 05:28:27;;;;;;;1.60;1.50;;;;;;;14.78;100.00;98558.53;5093826;28;20211;-65
2023/10/28 05:30:53;;;;;;;1.53;1.43;;;;;;;14.79;100.00;98558.47;5093242;28;20204;-65
2023/10/28 05:33:20;;;;;;;1.40;1.30;;;;;;;14.88;100.00;98569.97;5093365;28;20207;-65
2023/10/28 05:35:48;;;;;;;2.63;1.87;;;;;;;14.94;100.00;98569.59;5093844;28;20196;-65
2023/10/28 05:38:15;;;;;;;1.67;1.67;;;;;;;14.98;100.00;98571.06;5093615;28;20324;-65
2023/10/28 05:40:43;;;;;;;1.60;1.60;;;;;;;14.99;100.00;98577.91;5093512;28;20267;-65
2023/10/28 05:43:10;;;;;;;2.30;2.20;;;;;;;15.02;100.00;98582.88;5093411;28;20195;-66
2023/10/28 05:45:37;;;;;;;1.87;1.77;;;;;;;15.08;100.00;98600.56;5093612;28;20252;-65
2023/10/28 05:48:06;;;;;;;1.57;1.47;;;;;;;15.11;100.00;98602.97;5093746;28;20211;-65
2023/10/28 05:50:33;;;;;;;2.03;1.60;;;;;;;15.17;100.00;98597.41;5093266;28;20211;-65
2023/10/28 05:53:00;;;;;;;3.10;2.07;;;;;;;15.20;100.00;98594.63;5093180;28;20207;-65
2023/10/28 05:55:26;;;;;;;2.30;2.20;;;;;;;15.23;100.00;98609.94;5092896;28;20556;-65
2023/10/28 05:57:55;;;;;;;1.83;1.50;;;;;;;15.24;100.00;98611.59;5093186;28;20192;-65
2023/10/28 06:00:21;;;;;;;4.50;1.90;;;;;;;15.14;100.00;98597.59;5093012;28;20195;-65
2023/10/28 06:02:48;;;;;;;1.53;1.30;;;;;;;15.32;100.00;98627.44;5092805;28;20272;-66
2023/10/28 06:05:15;;;;;;;9.63;1.70;;;;;;;15.30;100.00;98639.63;5093046;28;20204;-65
2023/10/28 06:22:36;;;;;;;1.60;1.60;;;;;;;16.13;100.00;98636.09;5064266;27;20570;-68
2023/10/28 06:25:04;;;;;;;2.10;1.47;;;;;;;16.14;100.00;98648.94;5064394;27;20268;-68
2023/10/28 06:27:31;;;;;;;2.30;1.30;;;;;;;16.15;100.00;98648.03;5070151;27;20675;-68
2023/10/28 06:29:57;;;;;;;1.20;1.20;;;;;;;16.14;100.00;98655.88;5124363;27;20200;-68
2023/10/28 06:32:24;;;;;;;2.20;1.60;;;;;;;16.13;100.00;98655.03;5064287;27;20260;-68
2023/10/28 06:34:51;;;;;;;1.50;1.50;;;;;;;16.11;100.00;98663.81;5161585;27;20313;-68
2023/10/28 06:37:17;;;;;;;1.40;1.40;;;;;;;16.15;100.00;98675.63;5102466;27;20635;-68
2023/10/28 06:39:47;;;;;;;5.13;1.70;;;;;;;16.15;100.00;98671.28;5117891;27;20196;-68
2023/10/28 06:42:14;;;;;;;1.63;1.50;;;;;;;16.18;100.00;98685.78;5064114;27;20201;-68
2023/10/28 06:44:43;;;;;;;1.13;1.03;;;;;;;16.21;100.00;98680.41;5063912;27;20294;-69
2023/10/28 06:47:10;;;;;;;1.57;1.57;;;;;;;16.28;100.00;98684.25;5066561;27;20204;-69
2023/10/28 06:49:36;;;;;;;4.23;2.50;;;;;;;16.32;100.00;98684.91;5063540;27;20260;-68
2023/10/28 06:52:04;;;;;;;6.60;2.60;;;;;;;16.36;100.00;98686.34;5063865;27;20269;-69
2023/10/28 06:54:30;;;;;;;2.10;2.00;;;;;;;16.39;100.00;98689.56;5129837;27;20235;-69
2023/10/28 07:11:11;;;;;;;2.00;1.90;;;;;;;17.27;100.00;98689.66;5124704;27;20574;-70
2023/10/28 07:13:38;;;;;;;3.33;2.27;;;;;;;17.44;100.00;98714.41;5129243;27;20550;-70
2023/10/28 07:16:05;;;;;;;2.17;2.07;;;;;;;17.55;100.00;98713.66;5125408;27;20273;-70
2023/10/28 07:18:32;;;;;;;1.40;1.40;;;;;;;17.64;100.00;98716.47;5124558;27;20198;-70
2023/10/28 07:21:00;;;;;;;1.73;1.63;;;;;;;17.69;100.00;98714.41;5127709;27;20255;-70
2023/10/28 07:23:27;;;;;;;1.40;1.40;;;;;;;17.75;100.00;98711.38;5128693;27;20198;-70
2023/10/28 07:25:54;;;;;;;1.33;1.33;;;;;;;17.93;100.00;98713.63;5128412;27;20214;-70
2023/10/28 07:28:24;;;;;;;1.77;1.67;;;;;;;17.94;100.00;98699.69;5126182;27;20551;-70
2023/10/28 07:30:52;;;;;;;1.67;1.67;;;;;;;18.17;100.00;98696.28;5128504;27;20200;-70
2023/10/28 07:33:19;;;;;;;1.77;1.67;;;;;;;18.42;100.00;98710.91;5128179;27;20195;-70
2023/10/28 07:35:47;;;;;;;1.57;1.47;;;;;;;18.64;100.00;98711.84;5128031;27;20265;-70
2023/10/28 07:38:14;;;;;;;3.27;3.07;;;;;;;18.83;100.00;98717.34;5127955;27;20207;-70
2023/10/28 07:40:41;;;;;;;1.90;1.43;;;;;;;19.03;100.00;98712.44;5128410;27;20221;-70
2023/10/28 07:43:08;;;;;;;2.17;2.07;;;;;;;19.23;98.67;98719.50;5128264;27;20584;-69
2023/10/28 07:45:36;;;;;;;1.60;1.50;;;;;;;19.48;97.54;98729.75;5128517;27;20202;-70
2023/10/28 07:48:03;;;;;;;2.93;2.03;;;;;;;19.69;96.42;98733.28;5129310;27;20196;-68
2023/10/28 07:50:30;;;;;;;2.70;2.17;;;;;;;19.89;94.39;98735.13;5128432;27;20756;-67
2023/10/28 07:52:57;;;;;;;2.00;1.93;;;;;;;20.12;92.65;98735.09;5128740;27;20267;-67
2023/10/28 07:55:23;;;;;;;4.27;2.03;;;;;;;20.28;92.20;98735.56;5128418;27;20615;-67
2023/10/28 07:57:50;;;;;;;2.33;2.03;;;;;;;20.43;91.46;98734.31;5128535;27;20194;-67
2023/10/28 08:00:17;;;;;;;3.97;1.70;;;;;;;20.57;90.37;98736.63;5128041;27;20210;-67
2023/10/28 08:02:46;;;;;;;1.97;1.87;;;;;;;20.71;89.36;98741.53;5128367;27;20251;-67
2023/10/28 08:05:14;;;;;;;1.77;1.67;;;;;;;20.99;88.65;98742.69;5128173;27;20248;-68
2023/10/28 08:07:40;;;;;;;1.73;1.63;;;;;;;21.15;88.50;98742.28;5128199;27;20194;-68
2023/10/28 08:10:08;;;;;;;2.00;1.90;;;;;;;21.32;88.20;98752.13;5125696;27;20347;-68
2023/10/28 08:12:35;;;;;;;1.27;1.23;;;;;;;21.49;86.58;98750.69;5114240;28;20202;-68
2023/10/28 08:15:03;;;;;;;9.50;1.80;;;;;;;21.58;85.55;98755.94;5114442;28;20205;-68
2023/10/28 08:17:30;;;;;;;1.90;1.80;;;;;;;21.74;85.88;98740.63;5114096;28;20202;-67
2023/10/28 08:19:58;;;;;;;2.57;2.37;;;;;;;21.89;84.79;98749.78;5114172;28;20245;-68
2023/10/28 08:22:25;;;;;;;2.03;1.77;;;;;;;21.91;83.73;98755.66;5114053;27;20191;-67
2023/10/28 08:24:52;;;;;;;1.90;1.80;;;;;;;21.97;83.39;98755.13;5114202;28;20198;-68
2023/10/28 08:27:19;;;;;;;5.10;2.20;;;;;;;22.08;83.75;98758.59;5114133;28;20271;-68
2023/10/28 08:29:48;;;;;;;2.00;1.90;;;;;;;22.19;82.85;98756.72;5114180;28;20195;-68
2023/10/28 08:32:17;;;;;;;1.70;1.60;;;;;;;22.26;82.47;98754.41;5114056;28;20555;-68
2023/10/28 08:34:44;;;;;;;2.93;1.90;;;;;;;22.36;82.68;98755.19;5114064;28;20685;-68
2023/10/28 08:37:13;;;;;;;1.90;1.80;;;;;;;22.46;81.99;98756.88;5114164;28;20256;-68
2023/10/28 08:39:42;;;;;;;2.23;1.60;;;;;;;22.69;81.24;98760.06;5113860;28;20685;-70
2023/10/28 08:42:11;;;;;;;4.90;1.67;;;;;;;22.72;79.90;98759.78;5113982;28;20213;-70
2023/10/28 08:44:39;;;;;;;1.70;1.60;;;;;;;22.80;79.58;98751.28;5113596;28;20259;-69
2023/10/28 08:47:07;;;;;;;1.70;1.60;;;;;;;22.79;79.18;98750.44;5113763;28;20252;-70
2023/10/28 08:49:36;;;;;;;1.73;1.63;;;;;;;22.86;79.80;98755.94;5113749;28;20654;-68
2023/10/28 08:52:05;;;;;;;2.60;1.47;;;;;;;23.04;78.67;98754.25;5113852;28;20260;-68
2023/10/28 08:54:35;;;;;;;5.63;1.70;;;;;;;23.20;79.11;98759.72;5113472;28;20199;-68
2023/10/28 08:57:03;;;;;;;1.27;1.20;;;;;;;23.35;78.01;98762.75;5113610;28;20202;-68
2023/10/28 08:59:30;;;;;;;2.80;1.43;;;;;;;23.46;78.08;98749.50;5113550;28;20206;-68
2023/10/28 09:01:59;;;;;;;1.27;1.17;;;;;;;23.73;76.88;98767.88;5113434;28;20190;-68
2023/10/28 09:04:26;;;;;;;1.67;1.57;;;;;;;23.94;75.16;98767.63;5113435;28;20222;-69
2023/10/28 09:06:53;;;;;;;2.50;1.67;;;;;;;24.03;75.87;98758.91;5113192;28;20263;-68
2023/10/28 09:09:21;;;;;;;1.60;1.50;;;;;;;24.02;75.10;98758.06;5113334;28;20234;-68
2023/10/28 09:11:50;;;;;;;1.10;1.10;;;;;;;24.05;76.02;98752.53;5113061;28;20198;-68
2023/10/28 09:14:17;;;;;;;1.50;1.10;;;;;;;24.20;75.79;98755.50;5113461;28;20191;-68
2023/10/28 09:16:44;;;;;;;6.57;1.70;;;;;;;24.37;74.06;98740.78;5112980;28;20244;-68
2023/10/28 09:19:20;;;;;;;1.40;1.30;;;;;;;24.51;74.68;98742.88;5113208;28;20195;-68
2023/10/28 09:21:47;;;;;;;2.13;1.70;;;;;;;24.63;74.12;98741.69;5112438;28;20298;-68
2023/10/28 09:24:14;;;;;;;1.37;1.27;;;;;;;24.78;72.89;98740.16;5112574;28;20210;-69
2023/10/28 09:26:41;;;;;;;1.77;0.93;;;;;;;24.80;72.74;98737.41;5112898;28;20230;-68
2023/10/28 09:29:09;;;;;;;1.87;1.50;;;;;;;24.79;71.55;98730.50;5112939;28;20194;-68
2023/10/28 09:31:37;;;;;;;1.10;1.10;;;;;;;24.82;72.21;98731.06;5112940;28;20293;-68
2023/10/28 09:34:05;;;;;;;0.90;0.90;;;;;;;24.89;72.13;98732.09;5112734;28;20685;-68
2023/10/28 09:36:31;;;;;;;3.20;1.00;;;;;;;24.99;71.55;98719.72;5112815;28;20256;-68
2023/10/28 09:39:01;;;;;;;0.77;0.77;;;;;;;25.00;70.98;98720.53;5112515;28;20259;-67
2023/10/28 09:41:29;;;;;;;0.77;0.77;;;;;;;24.88;70.67;98719.94;5113133;28;20666;-68
2023/10/28 09:43:56;;;;;;;0.97;0.97;;;;;;;24.97;71.25;98719.06;5112488;28;20194;-68
2023/10/28 09:46:31;;;;;;;1.70;1.60;;;;;;;24.95;70.62;98721.00;5112718;28;20661;-68
2023/10/28 09:49:04;;;;;;;1.20;1.10;;;;;;;24.82;71.44;98696.97;5112451;28;20669;-68
2023/10/28 09:51:31;;;;;;;2.57;1.10;;;;;;;25.11;70.84;98722.06;5112561;28;20570;-69
2023/10/28 09:54:01;;;;;;;1.00;1.00;;;;;;;25.22;70.11;98721.81;5112543;28;20199;-68
2023/10/28 09:56:33;;;;;;;0.77;0.77;;;;;;;25.32;68.87;98725.16;5112441;28;20244;-69
2023/10/28 09:59:07;;;;;;;0.90;0.90;;;;;;;25.48;69.96;98738.38;5112184;28;20199;-68
2023/10/28 10:01:43;;;;;;;1.73;1.13;;;;;;;25.55;68.29;98731.56;5112401;28;20664;-68
2023/10/28 10:04:23;;;;;;;0.90;0.90;;;;;;;25.53;68.82;98717.75;5112308;28;20259;-68
2023/10/28 10:06:50;;;;;;;10.97;1.10;;;;;;;25.69;68.82;98717.81;5111975;28;20247;-68
2023/10/28 10:09:18;;;;;;;0.90;0.90;;;;;;;25.84;67.74;98712.81;5112010;28;20578;-69
2023/10/28 10:11:45;;;;;;;0.87;0.87;;;;;;;25.95;67.42;98715.94;5112093;28;20199;-69
2023/10/28 10:14:13;;;;;;;3.13;1.00;;;;;;;26.04;67.25;98708.94;5111889;28;20198;-68
2023/10/28 10:16:48;;;;;;;2.83;1.03;;;;;;;25.95;67.21;98694.09;5112382;28;20289;-69
2023/10/28 10:19:20;;;;;;;1.30;0.73;;;;;;;26.04;67.29;98701.84;5112083;28;20715;-69
2023/10/28 10:21:52;;;;;;;1.33;1.30;;;;;;;26.14;67.49;98695.66;5111979;28;20223;-69
2023/10/28 10:24:20;;;;;;;0.90;0.90;;;;;;;26.26;67.32;98681.25;5111919;28;20229;-69
2023/10/28 10:26:54;;;;;;;0.93;0.93;;;;;;;26.29;66.17;98694.06;5111775;28;20194;-69
2023/10/28 10:29:21;;;;;;;0.90;0.90;;;;;;;26.23;65.87;98686.81;5111970;28;20198;-68
2023/10/28 10:31:52;;;;;;;1.00;0.90;;;;;;;26.10;65.07;98664.44;5111766;28;20195;-69
2023/10/28 10:34:32;;;;;;;2.63;0.60;;;;;;;26.24;66.22;98680.56;5111500;28;20281;-69
2023/10/28 10:36:59;;;;;;;0.90;0.90;;;;;;;26.31;65.58;98666.63;5111641;28;20636;-68
2023/10/28 10:39:26;;;;;;;0.63;0.63;;;;;;;26.40;64.61;98667.44;5111495;28;20196;-69
2023/10/28 10:41:54;;;;;;;0.97;0.97;;;;;;;26.47;64.55;98671.06;5111814;27;20289;-69
2023/10/28 10:44:25;;;;;;;0.70;0.70;;;;;;;26.51;64.31;98661.84;5111959;28;20199;-71
2023/10/28 10:46:56;;;;;;;1.63;0.70;;;;;;;26.52;63.45;98656.44;5111713;28;20273;-68
2023/10/28 10:49:23;;;;;;;0.60;0.60;;;;;;;26.63;63.44;98673.69;5111557;28;20692;-69
2023/10/28 10:51:51;;;;;;;0.80;0.80;;;;;;;26.70;63.48;98663.31;5111850;28;20247;-69
2023/10/28 10:54:18;;;;;;;1.00;1.00;;;;;;;26.68;62.02;98650.34;5111430;28;20237;-69
2023/10/28 10:56:45;;;;;;;0.90;0.90;;;;;;;26.79;62.24;98665.78;5111701;28;20191;-69
2023/10/28 10:59:12;;;;;;;0.60;0.53;;;;;;;26.79;62.60;98663.13;5111355;28;20213;-69
2023/10/28 11:01:39;;;;;;;1.23;0.90;;;;;;;26.76;62.70;98668.72;5111490;28;20567;-69
2023/10/28 11:04:08;;;;;;;1.20;1.20;;;;;;;26.75;62.40;98656.59;5111200;28;20202;-67
2023/10/28 11:06:35;;;;;;;3.13;0.80;;;;;;;26.84;61.83;98666.16;5111255;28;20195;-68
2023/10/28 11:09:04;;;;;;;0.93;0.93;;;;;;;26.73;61.41;98657.72;5111338;28;20317;-69
2023/10/28 11:11:35;;;;;;;1.20;1.20;;;;;;;26.67;61.35;98653.97;5111326;28;20641;-68
2023/10/28 11:14:02;;;;;;;1.10;1.10;;;;;;;26.71;62.17;98660.53;5111436;28;20202;-69
2023/10/28 11:16:31;;;;;;;1.00;1.00;;;;;;;26.73;61.79;98653.28;5111236;28;20202;-69
2023/10/28 11:18:59;;;;;;;0.80;0.80;;;;;;;26.84;61.47;98654.78;5111351;28;20754;-69
2023/10/28 11:21:28;;;;;;;0.60;0.60;;;;;;;26.80;60.07;98646.38;5111067;28;20297;-69
2023/10/28 11:23:55;;;;;;;1.40;0.73;;;;;;;26.88;60.24;98651.66;5111226;28;20191;-69
2023/10/28 11:26:23;;;;;;;0.70;0.70;;;;;;;26.92;60.26;98655.59;5111173;28;20693;-68
2023/10/28 11:28:50;;;;;;;0.60;0.60;;;;;;;26.90;61.40;98648.88;5111284;28;20194;-69
2023/10/28 11:31:19;;;;;;;0.60;0.60;;;;;;;26.94;60.38;98651.00;5111008;28;20194;-69
2023/10/28 11:33:47;;;;;;;2.17;0.80;;;;;;;27.11;60.70;98652.59;5111124;28;20252;-69
2023/10/28 11:36:14;;;;;;;0.80;0.80;;;;;;;27.25;60.22;98652.88;5111409;28;20614;-70
2023/10/28 11:38:43;;;;;;;0.70;0.70;;;;;;;27.34;61.27;98641.31;5111081;28;20195;-69
2023/10/28 11:41:13;;;;;;;0.73;0.73;;;;;;;27.40;60.52;98645.94;5111058;28;20221;-69
2023/10/28 11:43:40;;;;;;;0.80;0.80;;;;;;;27.47;59.89;98650.34;5110938;28;20640;-69
2023/10/28 11:46:07;;;;;;;2.90;0.60;;;;;;;27.48;58.61;98656.44;5112357;28;20199;-69
2023/10/28 11:48:35;;;;;;;0.80;0.80;;;;;;;27.41;59.10;98647.53;5114805;28;20220;-69
2023/10/28 11:51:02;;;;;;;0.60;0.60;;;;;;;27.44;59.47;98649.88;5115031;28;20203;-69
2023/10/28 11:53:30;;;;;;;0.70;0.70;;;;;;;27.41;59.02;98644.91;5111107;28;20199;-69
2023/10/28 11:55:58;;;;;;;1.33;1.23;;;;;;;27.46;58.12;98646.09;5114858;28;20214;-69
2023/10/28 11:58:25;;;;;;;0.97;0.97;;;;;;;27.49;57.74;98647.56;5114632;28;20194;-69
2023/10/28 12:00:55;;;;;;;0.93;0.70;;;;;;;27.55;57.41;98649.50;5114691;28;20215;-69